Underwood, IA (51576)

5:54 PM CST on December 03, 2016 (GMT -0600)
TAZ'S CrazyTown Farm | | Change Station

Elev 1214 ft 41.42 °N, 95.77 °W | Updated 21 seconds ago

Light Snow
Light Snow
32.7 °F
Feels Like 33 °F
N
3.0
Wind Variable Wind from North
Gusts 4.0 mph

Today
High -- | Low -- °F
--% Chance of Precip.
Yesterday
High -- | Low -- °F
Precip. -- in
Pressure 30.14 in
Visibility 2.0 miles
Clouds Overcast 200 ft
Windchill 33 °F
Dew Point 32 °F
Humidity 97%
Rainfall 0.00 in
Snow Depth Not available.
7:31 AM 4:53 PM
Waxing Crescent, 18% visible
METAR KCBF 032335Z AUTO 10007KT 2SM -SN OVC002 00/00 A3014 RMK AO2
Pressure 30.14 in
Visibility 2.0 miles
Clouds Overcast 200 ft
Windchill 33 °F
Dew Point 32 °F
Humidity 97%
Rainfall 0.00 in
Snow Depth Not available.
7:31 AM 4:53 PM
Waxing Crescent, 18% visible
METAR KCBF 032335Z AUTO 10007KT 2SM -SN OVC002 00/00 A3014 RMK AO2

10-Day Weather Forecast

Almanac

Astronomy

Dec. 03, 2016 Rise Set
Actual Time
Civil Twilight
Nautical Twilight
Astronomical Twilight
Moon
Length of Visible Light
Length of Day
Tomorrow will be .
, % of the Moon is Illuminated

Today's Extremes

State Highs State Lows

Community

WunderPhotos

Upload Photos

1,955,536 photos uploaded!

WunderBlog® & News

Nearby

Air Quality

  Air Quality AQ Index Pollutant
Not available.

Snow Depth

Station Depth Elevation

Earthquake Activity

City Distance Mag. Time & Date
Minimum magnitude displayed is 2.5.

Coastal Water Temperatures

Place Temperature

Stations

Nearby Weather Stations

Station Location Temp. Windchill Dew Point Humidity Wind Precip. Elev Updated Type
                   

Watches & Warnings

There are currently no watches in effect.